Time;durP1;ratioP1;P1;durP2;ratioP2;P2;SDS_P1;SDS_P2;PMS_P1;PMS_P2;Temp;Humidity;BMP_temperature;BMP_pressure;BME280_temperature;BME280_humidity;BME280_pressure;Samples;Min_cycle;Max_cycle;Signal;HPM_P1;HPM_P2
2023/07/09 00:01:33;;;;;;;7.87;5.87;;;;;;;-141.97;56.37;47563.28;4954865;29;20644;-83
2023/07/09 00:03:59;;;;;;;8.97;6.20;;;;;;;-141.97;56.24;47538.28;4954676;29;20168;-83
2023/07/09 00:06:24;;;;;;;7.73;5.70;;;;;;;-141.97;56.48;47488.31;4955216;29;20220;-83
2023/07/09 00:08:50;;;;;;;8.00;5.70;;;;;;;-141.97;56.56;47511.38;4953746;29;20271;-84
2023/07/09 00:11:15;;;;;;;8.13;5.97;;;;;;;-141.97;56.38;47509.47;4954991;29;20165;-84
2023/07/09 00:13:41;;;;;;;7.37;5.57;;;;;;;-141.97;56.35;47542.16;4955297;29;20227;-84
2023/07/09 00:16:16;;;;;;;11.07;5.97;;;;;;;-141.97;55.97;47524.84;4955298;29;20165;-85
2023/07/09 00:18:42;;;;;;;8.60;5.77;;;;;;;-141.97;56.10;47590.19;4954719;28;20275;-84
2023/07/09 00:21:08;;;;;;;7.17;5.43;;;;;;;-141.97;55.77;47546.00;4954852;29;20207;-86
2023/07/09 00:23:34;;;;;;;9.93;6.00;;;;;;;-141.97;55.83;47534.44;4955237;29;20621;-85
2023/07/09 00:26:03;;;;;;;6.73;5.77;;;;;;;-141.97;55.80;47538.28;4954943;29;20179;-85
2023/07/09 00:28:28;;;;;;;6.90;5.70;;;;;;;-141.97;55.58;47517.16;4955136;29;20156;-85
2023/07/09 00:30:53;;;;;;;8.20;5.90;;;;;;;-141.97;55.57;47538.28;4954748;29;20630;-84
2023/07/09 00:33:19;;;;;;;6.60;5.40;;;;;;;-141.97;55.61;47703.59;4954811;29;20169;-84
2023/07/09 00:35:46;;;;;;;8.10;5.77;;;;;;;-141.97;55.35;47501.78;4953723;29;20595;-84
2023/07/09 00:38:22;;;;;;;9.30;5.60;;;;;;;-141.97;55.45;47496.00;4954216;29;20168;-85
2023/07/09 00:40:59;;;;;;;7.20;5.40;;;;;;;-141.97;55.31;47555.59;4954790;29;20196;-84
2023/07/09 00:43:27;;;;;;;8.60;5.60;;;;;;;-141.97;55.33;47547.91;4954066;29;20176;-85
2023/07/09 00:46:11;;;;;;;8.23;5.50;;;;;;;-141.97;55.28;47511.38;4954560;29;20286;-84
2023/07/09 00:48:37;;;;;;;7.53;5.40;;;;;;;-141.97;55.32;47511.38;4954775;29;20168;-84
2023/07/09 00:51:11;;;;;;;8.40;5.90;;;;;;;-141.97;55.55;47530.59;4953959;29;20167;-84
2023/07/09 00:53:39;;;;;;;7.57;5.30;;;;;;;-141.97;55.36;47490.25;4952783;29;20200;-84
2023/07/09 00:56:11;;;;;;;7.87;5.60;;;;;;;-141.97;55.29;47615.19;4954150;29;20165;-84
2023/07/09 00:58:38;;;;;;;8.57;5.67;;;;;;;-141.97;55.15;47546.00;4953958;29;20237;-84
2023/07/09 01:01:11;;;;;;;7.87;5.60;;;;;;;-141.97;55.06;47476.78;4954000;29;20271;-84
2023/07/09 01:03:47;;;;;;;8.53;5.50;;;;;;;-141.97;54.84;47586.34;4953874;29;20172;-83
2023/07/09 01:06:15;;;;;;;7.17;5.50;;;;;;;-141.97;54.70;47526.75;4953712;29;20315;-81
2023/07/09 01:08:41;;;;;;;6.87;5.60;;;;;;;-141.97;54.54;47546.00;4953630;29;20180;-82
2023/07/09 01:11:20;;;;;;;7.50;5.40;;;;;;;-141.97;54.66;47549.84;4954046;29;20524;-82
2023/07/09 01:13:51;;;;;;;8.20;5.20;;;;;;;-141.97;54.66;47544.06;4953217;29;20243;-83
2023/07/09 01:16:18;;;;;;;6.73;5.40;;;;;;;-141.97;54.62;47563.28;4954027;29;20161;-82
2023/07/09 01:18:43;;;;;;;10.00;5.33;;;;;;;-141.97;54.77;47511.38;4969787;28;20180;-82
2023/07/09 01:21:19;;;;;;;7.83;5.30;;;;;;;-141.97;54.69;47521.00;4965318;29;20204;-83
2023/07/09 01:23:47;;;;;;;8.13;5.60;;;;;;;-141.97;54.55;47563.28;4953871;29;20172;-83
2023/07/09 01:26:15;;;;;;;6.77;5.27;;;;;;;-141.97;54.65;47546.00;4953441;29;20180;-82
2023/07/09 01:28:43;;;;;;;7.40;5.13;;;;;;;-141.97;54.66;47522.91;4953699;29;20164;-83
2023/07/09 01:31:14;;;;;;;10.50;5.30;;;;;;;-141.97;54.58;47549.84;4954881;28;20185;-82
2023/07/09 01:33:41;;;;;;;8.40;5.63;;;;;;;-141.97;54.54;47634.41;4957627;29;20565;-82
2023/07/09 01:36:09;;;;;;;8.43;5.20;;;;;;;-141.97;54.31;47505.63;4958007;29;20168;-83
2023/07/09 01:38:35;;;;;;;8.40;5.30;;;;;;;-141.97;54.22;47546.00;4955677;29;20649;-83
2023/07/09 01:41:01;;;;;;;10.13;5.20;;;;;;;-141.97;54.31;47513.31;4957684;29;20247;-83
2023/07/09 01:43:27;;;;;;;6.90;5.37;;;;;;;-141.97;54.43;47432.59;4957394;29;20578;-83
2023/07/09 01:45:57;;;;;;;9.37;4.90;;;;;;;-141.97;54.47;47740.13;4957789;29;20171;-83
2023/07/09 01:48:24;;;;;;;7.43;5.20;;;;;;;-141.97;54.37;47551.75;4958018;29;20243;-83
2023/07/09 01:50:51;;;;;;;6.70;5.17;;;;;;;-141.97;54.22;47534.44;4956003;29;20165;-82
2023/07/09 01:53:19;;;;;;;7.63;4.80;;;;;;;-141.97;53.92;47547.91;4957362;29;20285;-83
2023/07/09 01:55:45;;;;;;;7.03;5.00;;;;;;;-141.97;53.93;47526.75;4956656;29;20169;-82
2023/07/09 01:58:11;;;;;;;7.30;5.50;;;;;;;-141.97;54.04;47538.28;4957351;29;20189;-82
2023/07/09 02:00:37;;;;;;;6.67;4.67;;;;;;;-141.97;53.93;47572.91;4957327;29;20185;-82
2023/07/09 02:03:05;;;;;;;8.30;5.23;;;;;;;-141.97;54.27;47536.38;4957226;29;20663;-82
2023/07/09 02:05:32;;;;;;;6.17;4.53;;;;;;;-141.97;54.20;47574.81;4957208;28;20556;-83
2023/07/09 02:07:57;;;;;;;7.57;5.40;;;;;;;-141.97;54.43;47513.31;4957276;29;20219;-83
2023/07/09 02:10:23;;;;;;;7.93;4.97;;;;;;;-141.97;54.18;47563.28;4957442;29;20153;-83
2023/07/09 02:12:48;;;;;;;7.63;5.37;;;;;;;-141.97;54.13;47553.69;4956906;29;20160;-83
2023/07/09 02:15:15;;;;;;;7.50;4.83;;;;;;;-141.97;53.98;47517.16;4973281;29;20172;-82
2023/07/09 02:17:41;;;;;;;7.20;5.13;;;;;;;-141.97;53.67;47728.59;4980328;28;20236;-82
2023/07/09 02:20:09;;;;;;;8.63;5.40;;;;;;;-141.97;53.77;47549.84;4972126;28;20204;-82
2023/07/09 02:22:36;;;;;;;8.10;5.17;;;;;;;-141.97;53.67;47503.69;4958982;29;20219;-83
2023/07/09 02:25:01;;;;;;;6.53;5.10;;;;;;;-141.97;53.73;47544.06;4956349;29;20177;-84
2023/07/09 02:27:27;;;;;;;9.20;5.13;;;;;;;-141.97;53.62;47515.22;4957722;29;20180;-84
2023/07/09 02:29:54;;;;;;;9.17;5.50;;;;;;;-141.97;53.90;47542.16;4957118;29;20565;-84
2023/07/09 02:32:22;;;;;;;7.43;5.00;;;;;;;-141.97;53.79;47530.59;4957171;29;20180;-83
2023/07/09 02:34:48;;;;;;;6.40;4.53;;;;;;;-141.97;53.92;47574.81;4956916;29;20169;-83
2023/07/09 02:37:17;;;;;;;6.93;5.37;;;;;;;-141.97;53.92;47544.06;4956670;29;20161;-83
2023/07/09 02:39:43;;;;;;;5.70;5.00;;;;;;;-141.97;53.89;47563.28;4956317;29;20199;-84
2023/07/09 02:42:11;;;;;;;6.47;5.27;;;;;;;-141.97;53.95;47480.63;4955718;28;20165;-84
2023/07/09 02:44:36;;;;;;;6.53;4.87;;;;;;;-141.97;53.73;47563.28;4956172;29;20183;-84
2023/07/09 02:47:02;;;;;;;7.03;5.30;;;;;;;-141.97;53.70;47546.00;4958203;29;20660;-85
2023/07/09 02:49:27;;;;;;;8.07;5.20;;;;;;;-141.97;53.54;47465.25;4958902;29;20165;-84
2023/07/09 02:51:53;;;;;;;8.63;5.00;;;;;;;-141.97;53.40;47567.13;4956304;29;20196;-84
2023/07/09 02:54:18;;;;;;;7.07;5.20;;;;;;;-141.97;53.24;47521.00;4956151;29;20236;-83
2023/07/09 02:56:43;;;;;;;7.80;5.00;;;;;;;-141.97;53.25;47582.50;4956390;29;20203;-83
2023/07/09 02:59:09;;;;;;;7.77;5.53;;;;;;;-141.97;53.45;47546.00;4955448;29;20188;-83
2023/07/09 03:01:35;;;;;;;7.60;5.20;;;;;;;-141.97;53.36;47461.41;4956562;29;20169;-83
2023/07/09 03:04:01;;;;;;;8.53;5.03;;;;;;;-141.97;53.35;47522.91;4956299;29;20161;-83
2023/07/09 03:06:27;;;;;;;6.97;5.00;;;;;;;-141.97;53.64;47542.16;4955783;29;20596;-83
2023/07/09 03:08:53;;;;;;;7.97;5.00;;;;;;;-141.97;53.82;47532.53;4956334;29;20172;-83
2023/07/09 03:11:19;;;;;;;6.70;5.10;;;;;;;-141.97;53.92;47547.91;4956031;29;20173;-83
2023/07/09 03:13:46;;;;;;;6.10;5.10;;;;;;;-141.97;54.19;47561.38;4955814;29;20173;-83
2023/07/09 03:16:11;;;;;;;8.93;5.33;;;;;;;-141.97;54.16;47544.06;4955449;29;20177;-83
2023/07/09 03:18:36;;;;;;;9.17;5.43;;;;;;;-141.97;54.10;47542.16;4955652;29;20173;-83
2023/07/09 03:21:02;;;;;;;6.40;5.20;;;;;;;-141.97;54.28;47551.75;4956099;29;20302;-83
2023/07/09 03:23:28;;;;;;;8.70;5.43;;;;;;;-141.97;54.11;47526.75;4956402;29;20173;-83
2023/07/09 03:25:55;;;;;;;7.43;5.27;;;;;;;-141.97;53.91;47547.91;4955146;29;20177;-83
2023/07/09 03:28:20;;;;;;;7.90;5.33;;;;;;;-141.97;53.70;47565.22;4954220;29;20622;-83
2023/07/09 03:30:48;;;;;;;8.53;5.30;;;;;;;-141.97;53.73;47592.13;4954338;29;20172;-83
2023/07/09 03:33:16;;;;;;;7.33;5.07;;;;;;;-141.97;53.52;47534.44;4955369;29;20638;-83
2023/07/09 03:35:41;;;;;;;7.57;5.10;;;;;;;-141.97;53.38;47524.84;4956047;28;20184;-83
2023/07/09 03:38:08;;;;;;;6.87;5.27;;;;;;;-141.97;53.46;47563.28;4955622;29;20169;-83
2023/07/09 03:40:34;;;;;;;8.87;5.80;;;;;;;-141.97;53.35;47542.16;4955444;29;20683;-81
2023/07/09 03:43:00;;;;;;;7.03;5.30;;;;;;;-141.97;52.93;47511.38;4954387;29;20164;-82
2023/07/09 03:45:26;;;;;;;8.70;5.60;;;;;;;-141.97;52.68;47526.75;4971136;28;20215;-80
2023/07/09 03:47:51;;;;;;;8.27;5.10;;;;;;;-141.97;52.86;47561.38;4960368;29;20168;-82
2023/07/09 03:50:17;;;;;;;6.37;5.30;;;;;;;-141.97;52.72;47530.59;4969278;28;20697;-81
2023/07/09 03:52:43;;;;;;;9.13;5.40;;;;;;;-141.97;52.54;47569.06;4986681;28;20284;-84
2023/07/09 03:55:09;;;;;;;7.90;5.30;;;;;;;-141.97;52.52;47542.16;4983688;28;20181;-85
2023/07/09 03:57:35;;;;;;;7.07;5.03;;;;;;;-141.97;52.53;47546.00;4993030;28;20183;-85
2023/07/09 04:00:02;;;;;;;6.90;4.90;;;;;;;-141.97;52.12;47551.75;4975705;28;20215;-84
2023/07/09 04:02:28;;;;;;;5.40;4.80;;;;;;;-141.97;51.93;47507.53;4974056;28;20339;-83
2023/07/09 04:04:53;;;;;;;6.93;4.97;;;;;;;-141.97;51.96;47526.75;4973828;28;20279;-85
2023/07/09 04:07:19;;;;;;;6.70;4.87;;;;;;;-141.97;52.12;47570.97;4973660;28;20223;-85
2023/07/09 04:09:44;;;;;;;6.77;5.43;;;;;;;-141.97;51.97;47551.75;4972452;28;20194;-84
2023/07/09 04:12:10;;;;;;;11.47;5.63;;;;;;;-141.97;52.13;47480.63;4973569;28;20172;-85
2023/07/09 04:14:36;;;;;;;6.27;5.27;;;;;;;-141.97;51.80;47509.47;4974005;28;20647;-85
2023/07/09 04:17:02;;;;;;;10.27;5.30;;;;;;;-141.97;51.44;47476.78;4972482;28;20210;-85
2023/07/09 04:19:27;;;;;;;8.30;5.10;;;;;;;-141.97;51.23;47653.63;4974276;28;20199;-85
2023/07/09 04:21:53;;;;;;;6.77;5.07;;;;;;;-141.97;50.96;47563.28;4976475;28;20490;-85
2023/07/09 04:24:19;;;;;;;7.70;5.40;;;;;;;-141.97;50.61;47542.16;4974563;28;20171;-84
2023/07/09 04:26:45;;;;;;;7.20;5.10;;;;;;;-141.97;50.35;47530.59;4975284;28;20748;-84
2023/07/09 04:29:10;;;;;;;7.17;4.50;;;;;;;-141.97;50.10;47551.75;4973903;28;20192;-85
2023/07/09 04:31:37;;;;;;;6.23;5.00;;;;;;;-141.97;50.10;47540.22;4973793;28;20247;-85
2023/07/09 04:34:03;;;;;;;6.63;5.07;;;;;;;-141.97;49.99;47747.81;4974046;28;20160;-84
2023/07/09 04:36:29;;;;;;;7.43;5.77;;;;;;;-141.97;49.94;47595.97;4974177;28;20175;-83
2023/07/09 04:38:54;;;;;;;6.50;4.67;;;;;;;-141.97;49.65;47580.59;4989170;28;20176;-86
2023/07/09 04:41:21;;;;;;;9.23;5.47;;;;;;;-141.97;49.34;47275.00;4998098;28;20215;-85
2023/07/09 04:43:46;;;;;;;6.67;5.07;;;;;;;-141.97;48.88;47530.59;4992202;28;20243;-85
2023/07/09 04:46:11;;;;;;;6.87;5.30;;;;;;;-141.97;49.03;47522.91;4974722;28;20160;-84
2023/07/09 04:48:38;;;;;;;8.00;5.60;;;;;;;-141.97;48.70;47563.28;4973761;28;20161;-85
2023/07/09 04:51:04;;;;;;;6.90;5.40;;;;;;;-141.97;48.53;47380.69;4977670;28;20243;-86
2023/07/09 04:53:29;;;;;;;6.47;5.30;;;;;;;-141.97;48.31;47540.22;4988390;28;20662;-86
2023/07/09 04:55:55;;;;;;;7.23;5.30;;;;;;;-141.97;47.90;47511.38;4973767;28;20168;-85
2023/07/09 04:58:21;;;;;;;7.47;5.13;;;;;;;-141.97;48.17;47688.22;4973042;28;20164;-86
2023/07/09 05:00:46;;;;;;;7.47;5.10;;;;;;;-141.97;47.67;47451.81;4973127;28;20209;-86
2023/07/09 05:03:12;;;;;;;7.37;4.33;;;;;;;-141.97;47.71;47542.16;4973152;28;20659;-86
2023/07/09 05:05:47;;;;;;;6.70;5.00;;;;;;;-141.97;47.46;47546.00;4978720;28;20231;-86
2023/07/09 05:08:13;;;;;;;10.10;5.20;;;;;;;-141.97;47.15;47534.44;4994027;28;20186;-86
2023/07/09 05:10:43;;;;;;;6.80;5.10;;;;;;;-141.97;47.75;47553.69;4972932;28;20172;-85
2023/07/09 05:13:09;;;;;;;7.83;4.93;;;;;;;-141.97;47.63;47519.06;4973736;28;20511;-86
2023/07/09 05:15:34;;;;;;;7.43;5.53;;;;;;;-141.97;47.66;47517.16;4974133;28;20239;-86
2023/07/09 05:18:00;;;;;;;8.93;5.20;;;;;;;-141.97;47.39;47522.91;4972931;28;20168;-85
2023/07/09 05:20:25;;;;;;;10.53;5.30;;;;;;;-141.97;47.14;47519.06;4973142;28;20250;-85
2023/07/09 05:22:51;;;;;;;8.67;5.27;;;;;;;-141.97;46.71;47542.16;4974737;28;20680;-85
2023/07/09 05:25:17;;;;;;;5.37;4.30;;;;;;;-141.97;46.52;47515.22;4981434;28;20160;-85
2023/07/09 05:27:43;;;;;;;6.63;5.10;;;;;;;-141.97;46.83;47797.78;4992917;28;20182;-85
2023/07/09 05:30:09;;;;;;;8.00;5.20;;;;;;;-141.97;46.79;47459.50;5002766;28;20160;-85
2023/07/09 05:32:36;;;;;;;6.83;4.70;;;;;;;-141.97;47.00;47522.91;4995814;28;20678;-85
2023/07/09 05:35:02;;;;;;;6.97;4.63;;;;;;;-141.97;45.98;47519.06;4993651;28;20714;-84
2023/07/09 05:37:27;;;;;;;6.17;4.73;;;;;;;-141.97;45.55;47647.84;4992507;28;20159;-85
2023/07/09 05:39:52;;;;;;;6.60;5.17;;;;;;;-141.97;45.89;47517.16;4991934;28;20187;-85
2023/07/09 05:42:18;;;;;;;6.50;5.10;;;;;;;-141.97;45.06;47519.06;4991668;28;20186;-78
2023/07/09 05:44:43;;;;;;;9.10;4.97;;;;;;;-141.97;45.12;47457.56;4991845;28;20553;-85
2023/07/09 05:47:09;;;;;;;6.80;5.00;;;;;;;-141.97;44.74;47511.38;4991413;28;20542;-80
2023/07/09 05:49:34;;;;;;;7.47;4.70;;;;;;;-141.97;43.49;47501.78;4992057;28;21395;-78
2023/07/09 05:51:59;;;;;;;6.73;4.97;;;;;;;-141.97;42.82;47496.00;4975195;28;20168;-79
2023/07/09 05:54:25;;;;;;;8.27;5.10;;;;;;;-141.97;43.56;47511.38;4991852;28;20172;-80
2023/07/09 05:56:51;;;;;;;10.00;4.60;;;;;;;-141.97;43.08;47494.09;4992228;28;20164;-79
2023/07/09 05:59:16;;;;;;;6.40;4.70;;;;;;;-141.97;42.95;47503.69;4992148;28;20191;-79
2023/07/09 06:01:41;;;;;;;6.50;5.00;;;;;;;-141.97;43.32;47474.88;4992568;28;20254;-79
2023/07/09 06:04:07;;;;;;;6.13;4.50;;;;;;;-141.97;43.41;47490.25;4991846;28;20266;-79
2023/07/09 06:06:33;;;;;;;6.87;4.43;;;;;;;-141.97;43.18;47459.50;4991779;28;20223;-79
2023/07/09 06:08:58;;;;;;;6.37;4.70;;;;;;;-141.97;42.78;47509.47;4993618;28;20203;-79
2023/07/09 06:11:23;;;;;;;8.33;5.10;;;;;;;-141.97;42.57;47497.94;4996790;28;20611;-79
2023/07/09 06:13:49;;;;;;;7.17;4.90;;;;;;;-141.97;41.73;47507.53;4974021;28;20172;-80
2023/07/09 06:16:15;;;;;;;6.93;4.10;;;;;;;-141.97;42.05;47499.84;4991550;28;20255;-79
2023/07/09 06:18:40;;;;;;;6.10;4.63;;;;;;;-141.97;42.24;47488.31;4994488;28;20173;-79
2023/07/09 06:21:07;;;;;;;7.00;5.00;;;;;;;-141.97;42.21;47476.78;4994553;28;20282;-79
2023/07/09 06:23:32;;;;;;;7.20;4.77;;;;;;;-141.97;41.26;47484.47;4995014;28;20573;-79
2023/07/09 06:25:58;;;;;;;9.93;4.70;;;;;;;-141.97;41.52;47499.84;4995223;28;20226;-80
2023/07/09 06:28:28;;;;;;;5.87;4.37;;;;;;;-141.97;41.23;47505.63;4994894;28;20164;-80
2023/07/09 06:30:55;;;;;;;7.53;4.60;;;;;;;-141.97;41.15;47501.78;4994629;28;20168;-81
2023/07/09 06:33:20;;;;;;;6.43;4.70;;;;;;;-141.97;40.93;47449.88;4995014;28;20197;-80
2023/07/09 06:35:55;;;;;;;9.35;4.60;;;;;;;-141.97;41.21;47480.63;4995135;28;20169;-79
2023/07/09 06:38:21;;;;;;;7.13;4.95;;;;;;;-141.97;40.81;47472.94;4995017;28;20174;-80
2023/07/09 06:40:46;;;;;;;5.80;4.30;;;;;;;-141.97;40.40;47438.34;4995601;28;20199;-78
2023/07/09 06:43:12;;;;;;;7.90;4.47;;;;;;;-141.97;40.95;47426.81;4995257;28;20164;-77
2023/07/09 06:45:38;;;;;;;8.80;4.70;;;;;;;-141.97;40.39;47492.16;4995098;28;20165;-78
2023/07/09 06:48:04;;;;;;;6.35;4.60;;;;;;;-141.97;40.81;47472.94;4994750;28;20176;-78
2023/07/09 06:50:33;;;;;;;5.15;4.50;;;;;;;-141.97;40.79;47492.16;4994624;28;20168;-77
2023/07/09 06:52:58;;;;;;;6.10;4.60;;;;;;;-141.97;40.88;47524.84;4994388;28;20172;-78
2023/07/09 06:55:25;;;;;;;7.18;4.80;;;;;;;-141.97;40.43;47488.31;4978567;28;20181;-81
2023/07/09 06:57:50;;;;;;;8.73;4.70;;;;;;;-141.97;38.81;47465.25;4975055;28;20179;-78
2023/07/09 07:00:16;;;;;;;10.10;4.97;;;;;;;-141.97;38.60;47469.09;4975472;28;20246;-79
2023/07/09 07:02:42;;;;;;;7.45;4.60;;;;;;;-141.97;38.42;47457.56;4974834;28;20205;-79
2023/07/09 07:05:07;;;;;;;7.47;4.63;;;;;;;-141.97;38.32;47428.75;4979595;28;20208;-80
2023/07/09 07:07:33;;;;;;;7.60;4.55;;;;;;;-141.97;38.64;47382.63;4992865;28;20292;-79
2023/07/09 07:09:58;;;;;;;6.90;4.90;;;;;;;-141.97;38.63;47415.28;4998736;28;20211;-78
2023/07/09 07:12:29;;;;;;;9.48;4.95;;;;;;;-141.97;38.75;47465.25;4978300;28;20619;-79
2023/07/09 07:14:55;;;;;;;6.43;4.40;;;;;;;-141.97;37.74;47438.34;4977861;28;20172;-79
2023/07/09 07:17:22;;;;;;;6.53;4.82;;;;;;;-141.97;37.41;47446.03;4975202;28;20226;-79
2023/07/09 07:19:49;;;;;;;5.90;4.50;;;;;;;-141.97;37.72;47453.72;4975375;28;20194;-77
2023/07/09 07:22:15;;;;;;;6.68;4.57;;;;;;;-141.97;37.02;47467.19;4974318;28;20583;-78
2023/07/09 07:24:41;;;;;;;8.05;4.60;;;;;;;-141.97;36.23;47419.13;4974314;28;20187;-78
2023/07/09 07:27:07;;;;;;;8.52;4.82;;;;;;;-141.97;36.15;47422.97;4976072;28;20298;-82
2023/07/09 07:29:33;;;;;;;5.45;4.40;;;;;;;-141.97;36.61;47434.50;4974087;28;20166;-82
2023/07/09 07:32:00;;;;;;;6.15;4.53;;;;;;;-141.97;36.85;47461.41;4975432;28;20170;-82
2023/07/09 07:34:26;;;;;;;8.30;4.47;;;;;;;-141.97;36.58;47488.31;4976586;28;20258;-81
2023/07/09 07:36:51;;;;;;;6.95;4.15;;;;;;;-141.97;36.37;47699.75;4976333;28;20543;-83
2023/07/09 07:39:16;;;;;;;5.20;4.20;;;;;;;-141.97;36.72;47459.50;4974608;28;20206;-84
2023/07/09 07:41:42;;;;;;;5.15;4.38;;;;;;;-141.97;36.83;47415.28;4977819;28;20172;-85
2023/07/09 07:44:08;;;;;;;5.40;4.10;;;;;;;-141.97;36.40;47457.56;4974800;28;20203;-85
2023/07/09 07:46:34;;;;;;;8.02;4.43;;;;;;;-141.97;36.40;47459.50;4975800;28;20558;-84
2023/07/09 07:48:59;;;;;;;6.07;4.60;;;;;;;-141.97;36.38;47449.88;4976361;28;20165;-85
2023/07/09 07:51:25;;;;;;;5.88;4.78;;;;;;;-141.97;35.57;47442.19;4974278;28;20261;-84
2023/07/09 07:53:52;;;;;;;8.38;5.18;;;;;;;-141.97;34.69;47438.34;4975661;28;20551;-85
2023/07/09 07:56:17;;;;;;;7.50;4.65;;;;;;;-141.97;35.15;47426.81;4974336;28;20175;-87
2023/07/09 07:58:43;;;;;;;5.97;4.43;;;;;;;-141.97;34.33;47446.03;4975598;28;20169;-89
2023/07/09 08:01:09;;;;;;;6.35;4.53;;;;;;;-141.97;34.89;47411.44;4974314;28;20195;-87
2023/07/09 08:03:34;;;;;;;6.10;4.93;;;;;;;-141.97;33.97;47363.41;4974195;28;20158;-84
2023/07/09 08:06:00;;;;;;;8.32;4.72;;;;;;;-141.97;34.06;47409.53;4973696;28;20219;-86
2023/07/09 08:08:25;;;;;;;5.88;4.40;;;;;;;-141.97;34.29;47250.00;4965661;28;20177;-87
2023/07/09 08:10:51;;;;;;;7.90;4.30;;;;;;;-141.97;34.75;47219.25;4953427;29;20167;-87
2023/07/09 08:13:17;;;;;;;7.00;4.47;;;;;;;-141.97;34.71;47365.31;4955329;29;20203;-84
2023/07/09 08:15:42;;;;;;;5.45;4.20;;;;;;;-141.97;33.80;47432.59;4954572;29;20330;-84
2023/07/09 08:18:07;;;;;;;6.28;4.75;;;;;;;-141.97;33.91;47390.31;4952887;29;20617;-84
2023/07/09 08:20:33;;;;;;;6.20;4.40;;;;;;;-141.97;33.66;47653.63;4954496;29;20275;-84
2023/07/09 08:22:59;;;;;;;5.82;4.38;;;;;;;-141.97;33.20;47392.22;4953716;29;20161;-85
2023/07/09 08:25:24;;;;;;;11.50;4.47;;;;;;;-141.97;33.70;47384.53;4956331;29;20648;-85
2023/07/09 08:27:49;;;;;;;4.78;4.10;;;;;;;-141.97;33.87;47380.69;4955103;29;20237;-82
2023/07/09 08:30:15;;;;;;;6.75;4.40;;;;;;;-141.97;34.19;47396.06;4955778;29;20231;-82
2023/07/09 08:32:40;;;;;;;5.47;4.05;;;;;;;-141.97;33.54;47638.25;4955000;29;20174;-83
2023/07/09 08:35:06;;;;;;;5.20;4.25;;;;;;;-141.97;34.74;47430.66;4954376;29;20180;-83
2023/07/09 08:37:31;;;;;;;8.23;4.75;;;;;;;-141.97;33.78;47409.53;4959180;29;20169;-85
2023/07/09 08:39:57;;;;;;;6.60;4.47;;;;;;;-141.97;33.75;47398.00;4955604;28;20195;-84
2023/07/09 08:42:36;;;;;;;6.88;4.63;;;;;;;-141.97;32.88;47517.16;4954273;29;20162;-84
2023/07/09 08:45:36;;;;;;;5.53;4.10;;;;;;;-141.97;32.69;47380.69;4952553;29;20174;-85
2023/07/09 08:48:30;;;;;;;7.05;4.38;;;;;;;-141.97;31.88;47382.63;4955934;28;20183;-85
2023/07/09 08:51:14;;;;;;;6.22;4.30;;;;;;;-141.97;32.44;47407.59;4992590;28;20196;-85
2023/07/09 08:53:48;;;;;;;7.55;4.18;;;;;;;-141.97;31.67;47353.78;4992625;28;20228;-85
2023/07/09 08:56:15;;;;;;;5.22;4.05;;;;;;;-141.97;31.59;47357.63;4992212;28;20174;-85
2023/07/09 08:58:42;;;;;;;5.88;4.22;;;;;;;-141.97;31.38;47376.84;4992557;28;20174;-86
2023/07/09 09:01:20;;;;;;;7.18;4.35;;;;;;;-141.97;31.72;47373.00;4974936;28;20193;-85
2023/07/09 09:03:53;;;;;;;6.30;4.40;;;;;;;-141.97;32.08;47396.06;4992925;28;20168;-85
2023/07/09 09:06:30;;;;;;;5.20;4.70;;;;;;;-141.97;32.19;47419.13;4992318;28;20693;-85
2023/07/09 09:09:30;;;;;;;5.13;4.25;;;;;;;-141.97;32.08;47380.69;4975462;28;20725;-91
2023/07/09 09:12:11;;;;;;;6.70;4.40;;;;;;;-141.97;31.79;47376.84;4965774;29;20207;-91
2023/07/09 09:14:40;;;;;;;5.30;4.30;;;;;;;-141.97;31.53;47369.16;4963421;29;20188;-93
2023/07/09 09:17:14;;;;;;;5.85;4.43;;;;;;;-141.97;31.99;47357.63;4961101;29;20207;-94
2023/07/09 09:20:01;;;;;;;5.15;4.07;;;;;;;-141.97;31.98;47376.84;4958187;29;20210;-91
2023/07/09 09:22:48;;;;;;;6.80;4.45;;;;;;;-141.97;31.96;47403.75;4959596;29;20638;-92
2023/07/09 09:25:31;;;;;;;5.00;4.10;;;;;;;-141.97;32.02;47361.47;4941514;29;20350;-93
2023/07/09 09:28:01;;;;;;;6.20;4.55;;;;;;;-141.97;31.35;47361.47;4949043;29;20253;-78
2023/07/09 09:30:28;;;;;;;8.30;4.15;;;;;;;-141.97;30.82;47342.25;4968086;29;20165;-78
2023/07/09 09:33:04;;;;;;;6.55;4.10;;;;;;;-141.97;30.02;47369.16;4975514;28;20212;-80
2023/07/09 09:35:34;;;;;;;4.53;3.63;;;;;;;-141.97;30.60;47384.53;4973345;29;20239;-80
2023/07/09 09:38:00;;;;;;;7.15;4.57;;;;;;;-141.97;30.10;47367.25;4953937;29;20240;-81
2023/07/09 09:40:28;;;;;;;7.22;4.13;;;;;;;-141.97;29.74;47317.28;4952407;29;20215;-79
2023/07/09 09:42:56;;;;;;;5.10;4.10;;;;;;;-141.97;29.96;47334.56;4952488;29;20199;-80
2023/07/09 09:45:37;;;;;;;5.03;3.90;;;;;;;-141.97;29.10;47334.56;4953116;29;20179;-79
2023/07/09 09:48:11;;;;;;;5.28;3.90;;;;;;;-141.97;29.08;47346.09;4962025;28;20637;-79
2023/07/09 09:50:37;;;;;;;8.70;6.10;;;;;;;-141.97;28.61;47576.75;4980809;28;20198;-80
2023/07/09 09:53:07;;;;;;;6.28;4.15;;;;;;;-141.97;28.40;47334.56;5003526;28;20175;-80
2023/07/09 09:55:34;;;;;;;5.63;4.13;;;;;;;-141.97;28.58;47344.19;5004222;28;20301;-81
2023/07/09 09:58:02;;;;;;;6.80;5.20;;;;;;;-141.97;27.98;47324.97;4985809;28;20202;-79
2023/07/09 10:00:33;;;;;;;4.65;4.15;;;;;;;-141.97;29.21;47619.03;4985123;28;20195;-79
2023/07/09 10:03:01;;;;;;;4.93;3.90;;;;;;;-141.97;29.71;47344.19;4987848;28;20172;-77
2023/07/09 10:05:42;;;;;;;4.60;4.10;;;;;;;-141.97;30.66;47357.63;4985406;28;20636;-77
2023/07/09 10:08:13;;;;;;;5.25;4.20;;;;;;;-141.97;30.77;47390.31;4982844;28;20184;-79
2023/07/09 10:10:41;;;;;;;10.15;4.90;;;;;;;-141.97;30.81;47338.41;4976009;28;20242;-80
2023/07/09 10:13:28;;;;;;;5.47;3.90;;;;;;;-141.97;30.00;47332.66;4975348;28;20192;-81
2023/07/09 10:16:09;;;;;;;4.85;3.83;;;;;;;-141.97;30.32;47321.13;4976234;28;20163;-78
2023/07/09 10:19:03;;;;;;;4.97;3.70;;;;;;;-141.97;30.22;47344.19;4984914;28;20179;-78
2023/07/09 10:21:33;;;;;;;5.18;3.80;;;;;;;-141.97;30.16;47355.72;4985084;28;20296;-78
2023/07/09 10:24:08;;;;;;;5.65;3.90;;;;;;;-141.97;30.16;47338.41;4983022;28;20486;-77
2023/07/09 10:26:48;;;;;;;6.20;4.53;;;;;;;-141.97;30.02;47357.63;4979314;28;20636;-79
2023/07/09 10:29:34;;;;;;;5.40;4.10;;;;;;;-141.97;30.40;47334.56;4988686;28;20179;-78
2023/07/09 10:32:53;;;;;;;5.28;4.40;;;;;;;-141.97;29.88;47346.09;4954014;29;20681;-78
2023/07/09 10:35:32;;;;;;;5.32;4.10;;;;;;;-141.97;29.88;47346.09;4916242;29;20237;-79
2023/07/09 10:38:03;;;;;;;5.85;4.20;;;;;;;-141.97;30.54;47349.94;4915346;29;20190;-78
2023/07/09 10:40:39;;;;;;;5.32;4.45;;;;;;;-141.97;29.89;47315.34;4916869;29;20234;-79
2023/07/09 10:43:09;;;;;;;6.40;4.70;;;;;;;-141.97;29.50;47338.41;4918866;29;20197;-79
2023/07/09 10:45:42;;;;;;;5.25;4.15;;;;;;;-141.97;29.87;47338.41;4916854;29;20683;-78
2023/07/09 10:48:17;;;;;;;6.95;4.65;;;;;;;-141.97;29.79;47313.44;4925268;29;20634;-89
2023/07/09 10:50:51;;;;;;;5.30;3.88;;;;;;;-141.97;29.26;47250.00;4927045;29;20190;-89
2023/07/09 10:54:02;;;;;;;4.38;3.85;;;;;;;-141.97;28.63;47340.34;4907052;29;20209;-88
2023/07/09 10:56:35;;;;;;;4.78;4.03;;;;;;;-141.97;29.47;47334.56;4881722;29;20618;-88
2023/07/09 10:59:23;;;;;;;5.75;3.85;;;;;;;-141.97;29.98;47342.25;4881163;29;20197;-86
2023/07/09 11:02:00;;;;;;;6.78;4.30;;;;;;;-141.97;29.39;47169.28;4815492;29;20198;-89
2023/07/09 11:04:35;;;;;;;6.40;4.00;;;;;;;-141.97;29.49;47355.72;4796918;29;20229;-86
2023/07/09 11:07:17;;;;;;;5.75;4.07;;;;;;;-141.97;28.73;47332.66;4806013;29;20325;-88
2023/07/09 11:09:46;;;;;;;4.93;3.90;;;;;;;-141.97;29.15;47313.44;4791884;29;20187;-87
2023/07/09 11:12:24;;;;;;;4.95;4.05;;;;;;;-141.97;30.22;47342.25;4827637;29;20267;-87
2023/07/09 11:14:59;;;;;;;5.43;3.92;;;;;;;-141.97;30.02;47380.69;4842264;29;20198;-87
2023/07/09 11:17:27;;;;;;;4.95;3.97;;;;;;;-141.97;30.37;47380.69;4841778;29;20202;-87
2023/07/09 11:20:00;;;;;;;4.20;3.80;;;;;;;-141.97;28.89;47338.41;4841482;29;20227;-87
2023/07/09 11:22:40;;;;;;;4.70;3.92;;;;;;;-141.97;29.39;47321.13;4841586;29;20173;-87
2023/07/09 11:25:10;;;;;;;6.65;4.32;;;;;;;-141.97;29.02;47317.28;4841785;29;20196;-87